Time;durP1;ratioP1;P1;durP2;ratioP2;P2;SDS_P1;SDS_P2;PMS_P1;PMS_P2;Temp;Humidity;BMP_temperature;BMP_pressure;BME280_temperature;BME280_humidity;BME280_pressure;Samples;Min_cycle;Max_cycle;Signal;HPM_P1;HPM_P2
2022/01/09 00:00:11;;;;;;;7.47;5.03;;;;;;;;;;5032615;28;20572;-61
2022/01/09 00:02:36;;;;;;;7.10;4.60;;;;;;;;;;5052554;28;20214;-61
2022/01/09 00:05:01;;;;;;;8.07;5.20;;;;;;;;;;5052180;28;20211;-61
2022/01/09 00:07:26;;;;;;;7.63;5.13;;;;;;;;;;5049983;28;20225;-61
2022/01/09 00:09:52;;;;;;;9.30;5.45;;;;;;;;;;5052344;28;20670;-62
2022/01/09 00:12:17;;;;;;;7.75;5.03;;;;;;;;;;5052136;28;20210;-61
2022/01/09 00:14:42;;;;;;;7.03;4.50;;;;;;;;;;5033585;28;20214;-61
2022/01/09 00:17:08;;;;;;;6.40;4.20;;;;;;;;;;5038434;28;20215;-61
2022/01/09 00:19:33;;;;;;;5.10;3.73;;;;;;;;;;5032446;28;20648;-61
2022/01/09 00:21:58;;;;;;;4.83;3.33;;;;;;;;;;5035886;28;20264;-61
2022/01/09 00:24:23;;;;;;;6.00;3.43;;;;;;;;;;5051790;28;20262;-61
2022/01/09 00:26:49;;;;;;;5.00;3.53;;;;;;;;;;5034189;28;20638;-60
2022/01/09 00:29:14;;;;;;;4.90;3.10;;;;;;;;;;5050928;28;20218;-61
2022/01/09 00:31:39;;;;;;;4.30;3.30;;;;;;;;;;5052324;28;20253;-61
2022/01/09 00:34:05;;;;;;;5.40;3.10;;;;;;;;;;5051992;28;20701;-61
2022/01/09 00:36:31;;;;;;;5.27;3.63;;;;;;;;;;5051107;28;20693;-61
2022/01/09 00:38:56;;;;;;;3.83;3.27;;;;;;;;;;5051932;28;20203;-61
2022/01/09 00:41:21;;;;;;;4.33;3.60;;;;;;;;;;5051477;28;20615;-61
2022/01/09 00:43:47;;;;;;;5.40;4.00;;;;;;;;;;5045363;28;20702;-61
2022/01/09 00:46:12;;;;;;;4.60;3.47;;;;;;;;;;5031551;28;20251;-61
2022/01/09 00:48:37;;;;;;;5.38;3.88;;;;;;;;;;5031082;28;20655;-61
2022/01/09 00:51:02;;;;;;;5.85;4.10;;;;;;;;;;5014274;28;20223;-61
2022/01/09 00:53:28;;;;;;;6.27;4.17;;;;;;;;;;5031927;28;20218;-61
2022/01/09 00:55:53;;;;;;;6.67;4.50;;;;;;;;;;5031494;28;20219;-61
2022/01/09 00:58:18;;;;;;;5.00;4.20;;;;;;;;;;5031521;28;20208;-61
2022/01/09 01:00:44;;;;;;;5.67;4.20;;;;;;;;;;5011510;28;20209;-61
2022/01/09 01:03:09;;;;;;;5.57;4.20;;;;;;;;;;4997208;28;20204;-61
2022/01/09 01:05:34;;;;;;;6.53;4.57;;;;;;;;;;4998459;28;20228;-61
2022/01/09 01:08:00;;;;;;;6.03;4.60;;;;;;;;;;5015460;28;20629;-61
2022/01/09 01:10:25;;;;;;;5.70;3.77;;;;;;;;;;5014582;28;20668;-61
2022/01/09 01:12:50;;;;;;;7.03;5.07;;;;;;;;;;5015826;28;20212;-61
2022/01/09 01:15:15;;;;;;;7.57;5.47;;;;;;;;;;5015181;28;20303;-61
2022/01/09 01:17:41;;;;;;;6.70;5.07;;;;;;;;;;5014724;28;20238;-61
2022/01/09 01:20:06;;;;;;;6.82;5.50;;;;;;;;;;5015012;28;20668;-61
2022/01/09 01:22:32;;;;;;;5.93;4.50;;;;;;;;;;5015292;28;20609;-61
2022/01/09 01:24:58;;;;;;;9.10;5.80;;;;;;;;;;5014529;28;20208;-61
2022/01/09 01:27:24;;;;;;;8.83;5.87;;;;;;;;;;5015125;28;20578;-61
2022/01/09 01:29:49;;;;;;;7.23;5.40;;;;;;;;;;4997815;28;20312;-61
2022/01/09 01:32:14;;;;;;;7.93;6.10;;;;;;;;;;5014138;28;20589;-61
2022/01/09 01:34:39;;;;;;;7.60;5.03;;;;;;;;;;5015497;28;20236;-61
2022/01/09 01:37:05;;;;;;;5.70;4.30;;;;;;;;;;4997371;28;20359;-61
2022/01/09 01:39:30;;;;;;;6.30;4.67;;;;;;;;;;5014185;28;20247;-61
2022/01/09 01:41:56;;;;;;;4.77;3.60;;;;;;;;;;5015129;28;20212;-61
2022/01/09 01:44:21;;;;;;;6.03;3.77;;;;;;;;;;5025480;28;20227;-61
2022/01/09 01:46:46;;;;;;;5.03;3.78;;;;;;;;;;5016259;28;20223;-61
2022/01/09 01:49:12;;;;;;;6.07;4.43;;;;;;;;;;5034413;28;20239;-61
2022/01/09 01:51:41;;;;;;;5.67;4.10;;;;;;;;;;5034823;28;20208;-61
2022/01/09 01:54:08;;;;;;;5.17;3.80;;;;;;;;;;5033653;28;20216;-61
2022/01/09 01:56:34;;;;;;;4.50;3.10;;;;;;;;;;5017156;28;20671;-61
2022/01/09 01:58:59;;;;;;;4.80;2.07;;;;;;;;;;5016096;28;20277;-61
2022/01/09 02:01:24;;;;;;;4.83;2.00;;;;;;;;;;5033917;28;20227;-61
2022/01/09 02:03:49;;;;;;;5.50;1.98;;;;;;;;;;5034545;28;20671;-61
2022/01/09 02:06:15;;;;;;;6.07;2.00;;;;;;;;;;5033242;28;20260;-61
2022/01/09 02:08:41;;;;;;;7.03;1.67;;;;;;;;;;5016787;28;20283;-61
2022/01/09 02:11:06;;;;;;;8.33;1.80;;;;;;;;;;5033355;28;20212;-61
2022/01/09 02:13:32;;;;;;;7.57;1.70;;;;;;;;;;5033958;28;20214;-61
2022/01/09 02:15:59;;;;;;;8.30;1.60;;;;;;;;;;5030501;28;20254;-61
2022/01/09 02:18:25;;;;;;;11.97;2.03;;;;;;;;;;4996938;28;20224;-61
2022/01/09 02:20:51;;;;;;;7.93;1.40;;;;;;;;;;5013989;28;20675;-61
2022/01/09 02:23:17;;;;;;;12.13;2.03;;;;;;;;;;5011341;28;20212;-61
2022/01/09 02:25:42;;;;;;;7.60;2.00;;;;;;;;;;5016583;28;20228;-61
2022/01/09 02:28:08;;;;;;;10.23;1.43;;;;;;;;;;5032701;28;20235;-62
2022/01/09 02:30:33;;;;;;;13.90;2.17;;;;;;;;;;5034274;28;20211;-61
2022/01/09 02:32:59;;;;;;;15.63;3.03;;;;;;;;;;5033906;28;20553;-61
2022/01/09 02:35:24;;;;;;;13.68;2.28;;;;;;;;;;5032723;28;20208;-61
2022/01/09 02:37:50;;;;;;;14.57;2.83;;;;;;;;;;5033848;28;20207;-61
2022/01/09 02:40:15;;;;;;;16.20;2.43;;;;;;;;;;5033188;28;20212;-61
2022/01/09 02:42:40;;;;;;;14.23;2.43;;;;;;;;;;5033411;28;20208;-61
2022/01/09 02:45:06;;;;;;;16.20;2.95;;;;;;;;;;5046435;28;20292;-61
2022/01/09 02:47:33;;;;;;;21.15;4.13;;;;;;;;;;5052197;28;20322;-61
2022/01/09 02:50:08;;;;;;;26.00;4.10;;;;;;;;;;5052903;28;20211;-61
2022/01/09 02:52:35;;;;;;;26.85;4.35;;;;;;;;;;5052040;28;20306;-61
2022/01/09 02:55:14;;;;;;;33.93;4.07;;;;;;;;;;5052103;28;20272;-61
2022/01/09 02:57:40;;;;;;;29.50;5.23;;;;;;;;;;5053552;28;20289;-62
2022/01/09 03:00:07;;;;;;;30.33;4.33;;;;;;;;;;5051275;28;20295;-61
2022/01/09 03:02:32;;;;;;;37.53;4.83;;;;;;;;;;5031438;28;20212;-61
2022/01/09 03:04:57;;;;;;;33.08;4.68;;;;;;;;;;5033581;28;20295;-61
2022/01/09 03:07:23;;;;;;;33.97;5.80;;;;;;;;;;5031560;28;20761;-61
2022/01/09 03:09:48;;;;;;;39.47;4.87;;;;;;;;;;5032717;28;20240;-61
2022/01/09 03:12:13;;;;;;;29.87;4.33;;;;;;;;;;5032928;28;20627;-61
2022/01/09 03:14:38;;;;;;;33.57;4.80;;;;;;;;;;5033519;28;20216;-61
2022/01/09 03:17:04;;;;;;;27.37;4.53;;;;;;;;;;5031833;28;20621;-61
2022/01/09 03:19:29;;;;;;;28.53;4.40;;;;;;;;;;5032092;28;20203;-61
2022/01/09 03:21:54;;;;;;;29.02;4.47;;;;;;;;;;5031918;28;20212;-61
2022/01/09 03:24:19;;;;;;;32.00;4.57;;;;;;;;;;5031022;28;20691;-61
2022/01/09 03:26:45;;;;;;;30.83;4.63;;;;;;;;;;5032881;28;20231;-61
2022/01/09 03:29:10;;;;;;;29.65;4.40;;;;;;;;;;5032383;28;20690;-61
2022/01/09 03:31:35;;;;;;;32.57;4.17;;;;;;;;;;5032291;28;20215;-61
2022/01/09 03:34:00;;;;;;;21.93;4.17;;;;;;;;;;5032470;28;20208;-61
2022/01/09 03:36:26;;;;;;;29.52;4.30;;;;;;;;;;5031606;28;20219;-61
2022/01/09 03:38:51;;;;;;;26.23;4.13;;;;;;;;;;5043061;28;20238;-61
2022/01/09 03:41:16;;;;;;;24.23;3.70;;;;;;;;;;5051946;28;20218;-61
2022/01/09 03:43:41;;;;;;;25.33;4.53;;;;;;;;;;5052370;28;20230;-61
2022/01/09 03:46:07;;;;;;;24.50;3.30;;;;;;;;;;5033844;28;20231;-61
2022/01/09 03:48:32;;;;;;;27.13;3.83;;;;;;;;;;5032482;28;20257;-61
2022/01/09 03:50:57;;;;;;;24.58;3.60;;;;;;;;;;5032575;28;20671;-61
2022/01/09 03:53:23;;;;;;;30.97;4.00;;;;;;;;;;5030969;28;20666;-61
2022/01/09 03:55:48;;;;;;;28.30;3.67;;;;;;;;;;5031210;28;20266;-61
2022/01/09 03:58:13;;;;;;;21.70;3.23;;;;;;;;;;5032058;28;20216;-61
2022/01/09 04:00:39;;;;;;;32.75;4.25;;;;;;;;;;5006590;28;20266;-60
2022/01/09 04:03:04;;;;;;;31.70;4.27;;;;;;;;;;5011968;28;20641;-61
2022/01/09 04:05:29;;;;;;;28.90;4.93;;;;;;;;;;5011922;28;20212;-61
2022/01/09 04:07:54;;;;;;;25.13;3.80;;;;;;;;;;5011972;28;20573;-60
2022/01/09 04:10:22;;;;;;;29.90;4.10;;;;;;;;;;5012149;28;20683;-60
2022/01/09 04:12:50;;;;;;;23.80;3.53;;;;;;;;;;5011605;28;20730;-61
2022/01/09 04:15:15;;;;;;;25.10;3.93;;;;;;;;;;4994405;28;20675;-61
2022/01/09 04:17:51;;;;;;;23.20;3.73;;;;;;;;;;4994790;28;20216;-61
2022/01/09 04:20:16;;;;;;;28.35;3.85;;;;;;;;;;5011168;28;20230;-61
2022/01/09 04:22:42;;;;;;;28.87;4.40;;;;;;;;;;5004985;28;20233;-61
2022/01/09 04:25:07;;;;;;;28.38;4.53;;;;;;;;;;5031599;28;20290;-62
2022/01/09 04:27:33;;;;;;;11.38;2.30;;;;;;;;;;5013389;28;20224;-61
2022/01/09 04:29:58;;;;;;;20.93;3.53;;;;;;;;;;5032336;28;20204;-62
2022/01/09 04:32:24;;;;;;;15.83;2.50;;;;;;;;;;4997660;28;20211;-61
2022/01/09 04:34:50;;;;;;;10.97;2.23;;;;;;;;;;5032978;28;20215;-61
2022/01/09 04:37:15;;;;;;;13.55;2.00;;;;;;;;;;5035213;28;20220;-61
2022/01/09 04:39:41;;;;;;;13.63;2.50;;;;;;;;;;5036077;28;20211;-61
2022/01/09 04:42:07;;;;;;;14.70;2.20;;;;;;;;;;5034851;28;20262;-61
2022/01/09 04:44:32;;;;;;;20.43;2.90;;;;;;;;;;5027341;28;20224;-61
2022/01/09 04:47:03;;;;;;;23.37;3.47;;;;;;;;;;5035845;28;20293;-61
2022/01/09 04:49:35;;;;;;;20.37;3.23;;;;;;;;;;5034825;28;20675;-61
2022/01/09 04:52:02;;;;;;;18.50;3.28;;;;;;;;;;5033976;28;20199;-61
2022/01/09 04:54:28;;;;;;;20.50;3.37;;;;;;;;;;5035873;28;20204;-60
2022/01/09 04:56:53;;;;;;;22.67;3.53;;;;;;;;;;5035126;28;20210;-60
2022/01/09 04:59:18;;;;;;;20.23;3.95;;;;;;;;;;5034887;28;20560;-60
2022/01/09 05:01:44;;;;;;;22.98;4.13;;;;;;;;;;5034950;28;20265;-60
2022/01/09 05:04:09;;;;;;;13.30;2.70;;;;;;;;;;5035129;28;20239;-60
2022/01/09 05:06:34;;;;;;;21.33;3.13;;;;;;;;;;5035247;28;20306;-60
2022/01/09 05:08:59;;;;;;;16.23;3.27;;;;;;;;;;5034630;28;20571;-60
2022/01/09 05:11:25;;;;;;;18.53;2.73;;;;;;;;;;5034983;28;20216;-61
2022/01/09 05:13:50;;;;;;;20.83;2.93;;;;;;;;;;5035305;28;20690;-61
2022/01/09 05:16:15;;;;;;;15.13;2.47;;;;;;;;;;5032815;28;20240;-60
2022/01/09 05:18:52;;;;;;;17.55;3.22;;;;;;;;;;5035221;28;20683;-60
2022/01/09 05:21:17;;;;;;;18.23;2.20;;;;;;;;;;5033516;28;20214;-61
2022/01/09 05:23:42;;;;;;;22.23;3.35;;;;;;;;;;5052902;28;20207;-61
2022/01/09 05:26:08;;;;;;;23.60;3.37;;;;;;;;;;5054661;28;20564;-60
2022/01/09 05:28:33;;;;;;;22.80;3.73;;;;;;;;;;5054908;28;20759;-61
2022/01/09 05:30:58;;;;;;;19.87;2.80;;;;;;;;;;5054481;28;20227;-61
2022/01/09 05:33:24;;;;;;;21.73;3.40;;;;;;;;;;5054533;28;20290;-61
2022/01/09 05:35:49;;;;;;;18.05;3.28;;;;;;;;;;5055113;28;20253;-62
2022/01/09 05:38:14;;;;;;;24.30;3.50;;;;;;;;;;5052847;28;20575;-61
2022/01/09 05:40:39;;;;;;;21.17;2.87;;;;;;;;;;5054901;28;20263;-60
2022/01/09 05:43:05;;;;;;;18.45;3.00;;;;;;;;;;5053742;28;20199;-61
2022/01/09 05:45:30;;;;;;;18.70;3.20;;;;;;;;;;5033521;28;20720;-61
2022/01/09 05:47:55;;;;;;;19.00;2.80;;;;;;;;;;5034194;28;20261;-61
2022/01/09 05:50:21;;;;;;;20.00;2.80;;;;;;;;;;5034204;28;20211;-61
2022/01/09 05:52:46;;;;;;;17.37;2.57;;;;;;;;;;5033814;28;20217;-61
2022/01/09 05:55:11;;;;;;;16.43;2.90;;;;;;;;;;5034143;28;20219;-60
2022/01/09 05:57:36;;;;;;;21.83;2.93;;;;;;;;;;5016964;28;20295;-61
2022/01/09 06:00:03;;;;;;;21.17;3.53;;;;;;;;;;5032867;28;20268;-60
2022/01/09 06:02:28;;;;;;;22.93;3.13;;;;;;;;;;5014903;28;20208;-61
2022/01/09 06:04:53;;;;;;;13.83;2.43;;;;;;;;;;4996612;28;20573;-60
2022/01/09 06:07:18;;;;;;;20.77;3.10;;;;;;;;;;5013948;28;20228;-60
2022/01/09 06:09:44;;;;;;;22.83;2.73;;;;;;;;;;4997106;28;20287;-60
2022/01/09 06:12:09;;;;;;;18.60;2.47;;;;;;;;;;5013820;28;20216;-60
2022/01/09 06:14:35;;;;;;;15.27;2.40;;;;;;;;;;5014224;28;20212;-61
2022/01/09 06:17:00;;;;;;;17.50;2.47;;;;;;;;;;5014451;28;20641;-61
2022/01/09 06:19:25;;;;;;;19.93;3.30;;;;;;;;;;5013556;28;20205;-61
2022/01/09 06:21:50;;;;;;;12.33;2.53;;;;;;;;;;4997178;28;20212;-61
2022/01/09 06:24:16;;;;;;;18.37;2.97;;;;;;;;;;5013798;28;20259;-61
2022/01/09 06:26:41;;;;;;;21.02;3.20;;;;;;;;;;4996053;28;20692;-61
2022/01/09 06:29:06;;;;;;;14.00;2.47;;;;;;;;;;4995904;28;20291;-61
2022/01/09 06:31:32;;;;;;;16.13;2.50;;;;;;;;;;5014280;28;20215;-61
2022/01/09 06:33:57;;;;;;;18.43;2.97;;;;;;;;;;4995860;28;20569;-61
2022/01/09 06:36:22;;;;;;;18.33;3.00;;;;;;;;;;5013555;28;20292;-61
2022/01/09 06:38:47;;;;;;;17.00;2.90;;;;;;;;;;4996177;28;20201;-61
2022/01/09 06:41:13;;;;;;;19.30;2.90;;;;;;;;;;5012768;28;20219;-61
2022/01/09 06:43:38;;;;;;;18.37;2.83;;;;;;;;;;4996227;28;20236;-60
2022/01/09 06:46:03;;;;;;;13.73;2.70;;;;;;;;;;5013181;28;20237;-60
2022/01/09 06:48:28;;;;;;;16.40;2.47;;;;;;;;;;5013053;28;20205;-61
2022/01/09 06:50:54;;;;;;;17.50;2.40;;;;;;;;;;5013880;28;20246;-61
2022/01/09 06:53:19;;;;;;;14.53;2.60;;;;;;;;;;5013241;28;20212;-61
2022/01/09 06:55:45;;;;;;;15.87;2.30;;;;;;;;;;5015309;28;20211;-61
2022/01/09 06:58:10;;;;;;;14.73;2.50;;;;;;;;;;5032689;28;20220;-61
2022/01/09 07:00:36;;;;;;;14.60;2.43;;;;;;;;;;5028018;28;20665;-60
2022/01/09 07:03:01;;;;;;;19.17;2.67;;;;;;;;;;5012375;28;20208;-62
2022/01/09 07:05:26;;;;;;;17.93;2.60;;;;;;;;;;5013541;28;20733;-60
2022/01/09 07:07:51;;;;;;;13.10;2.87;;;;;;;;;;5013344;28;20216;-58
2022/01/09 07:10:17;;;;;;;13.57;2.40;;;;;;;;;;5012310;28;20213;-60
2022/01/09 07:12:42;;;;;;;12.13;2.03;;;;;;;;;;5013612;28;20232;-60
2022/01/09 07:15:08;;;;;;;13.17;2.33;;;;;;;;;;5012834;28;20201;-60
2022/01/09 07:17:33;;;;;;;15.00;2.80;;;;;;;;;;4994527;28;20411;-62
2022/01/09 07:19:58;;;;;;;17.43;2.47;;;;;;;;;;5013542;28;20216;-62
2022/01/09 07:22:23;;;;;;;48.00;17.73;;;;;;;;;;5019794;28;20562;-61
2022/01/09 07:24:49;;;;;;;15.73;2.97;;;;;;;;;;5015294;28;20203;-61
2022/01/09 07:27:14;;;;;;;15.70;2.20;;;;;;;;;;5014623;28;20251;-61
2022/01/09 07:29:39;;;;;;;21.70;10.93;;;;;;;;;;5032012;28;20266;-61
2022/01/09 07:32:05;;;;;;;11.83;3.87;;;;;;;;;;5032369;28;20208;-61
2022/01/09 07:34:30;;;;;;;16.52;5.53;;;;;;;;;;5032705;28;20204;-61
2022/01/09 07:36:55;;;;;;;16.30;4.00;;;;;;;;;;5031861;28;20266;-61
2022/01/09 07:39:20;;;;;;;13.83;4.13;;;;;;;;;;5014575;28;20208;-62
2022/01/09 07:41:46;;;;;;;22.40;12.43;;;;;;;;;;5032612;28;20635;-62
2022/01/09 07:44:14;;;;;;;14.63;4.10;;;;;;;;;;5029358;28;20231;-61
2022/01/09 07:46:39;;;;;;;14.20;6.90;;;;;;;;;;5051248;28;20215;-61
2022/01/09 07:49:04;;;;;;;13.20;3.03;;;;;;;;;;5052035;28;20222;-60
2022/01/09 07:51:29;;;;;;;8.83;2.93;;;;;;;;;;5050419;28;20226;-60
2022/01/09 07:53:55;;;;;;;16.80;3.93;;;;;;;;;;5052364;28;20203;-61
2022/01/09 07:56:20;;;;;;;15.20;4.70;;;;;;;;;;5051794;28;20302;-60
2022/01/09 07:58:45;;;;;;;14.83;4.33;;;;;;;;;;5051490;28;20211;-60
2022/01/09 08:01:11;;;;;;;15.00;5.33;;;;;;;;;;5042089;28;20238;-60
2022/01/09 08:03:36;;;;;;;15.33;4.10;;;;;;;;;;5032514;28;20298;-60
2022/01/09 08:06:02;;;;;;;15.10;5.90;;;;;;;;;;5031204;28;20234;-61
2022/01/09 08:08:27;;;;;;;18.90;7.43;;;;;;;;;;5030735;28;20572;-61
2022/01/09 08:10:52;;;;;;;13.90;6.23;;;;;;;;;;5030588;28;20587;-61
2022/01/09 08:13:18;;;;;;;18.60;6.33;;;;;;;;;;5031058;28;20212;-62
2022/01/09 08:15:43;;;;;;;16.97;6.90;;;;;;;;;;5032023;28;20296;-61
2022/01/09 08:18:08;;;;;;;13.47;4.00;;;;;;;;;;5039876;28;20207;-61
2022/01/09 08:20:34;;;;;;;20.50;8.47;;;;;;;;;;5047548;28;20219;-61
2022/01/09 08:22:59;;;;;;;17.63;5.50;;;;;;;;;;5047705;28;20215;-61
2022/01/09 08:25:24;;;;;;;16.43;7.63;;;;;;;;;;5050747;28;20420;-62
2022/01/09 08:27:50;;;;;;;16.43;4.43;;;;;;;;;;5051337;28;20234;-61
2022/01/09 08:30:15;;;;;;;13.23;4.37;;;;;;;;;;5051948;28;20245;-61
2022/01/09 08:32:40;;;;;;;14.53;6.57;;;;;;;;;;5051273;28;20235;-61
2022/01/09 08:35:06;;;;;;;16.90;7.63;;;;;;;;;;5040988;28;20231;-61
2022/01/09 08:37:31;;;;;;;14.13;5.07;;;;;;;;;;5031698;28;20208;-61
2022/01/09 08:39:56;;;;;;;13.73;5.20;;;;;;;;;;5033738;28;20588;-61
2022/01/09 08:42:22;;;;;;;19.00;9.53;;;;;;;;;;5040968;28;20242;-61
2022/01/09 08:44:47;;;;;;;14.70;9.77;;;;;;;;;;5027671;28;20552;-61
2022/01/09 08:47:12;;;;;;;20.13;14.07;;;;;;;;;;5021884;28;20227;-61
2022/01/09 08:49:38;;;;;;;23.73;11.63;;;;;;;;;;5024279;28;20357;-61
2022/01/09 08:52:03;;;;;;;22.83;19.67;;;;;;;;;;5002599;28;20219;-60
2022/01/09 08:54:28;;;;;;;22.17;18.27;;;;;;;;;;4984389;28;20224;-60
2022/01/09 08:56:54;;;;;;;18.47;10.33;;;;;;;;;;4987445;28;20625;-60
2022/01/09 08:59:19;;;;;;;16.37;7.80;;;;;;;;;;5010058;28;20291;-60
2022/01/09 09:01:45;;;;;;;18.70;10.43;;;;;;;;;;5020602;28;20208;-60
2022/01/09 09:04:10;;;;;;;14.73;7.80;;;;;;;;;;5021667;28;20291;-60
2022/01/09 09:06:35;;;;;;;14.60;6.33;;;;;;;;;;5020411;28;20628;-60
2022/01/09 09:09:01;;;;;;;14.77;9.57;;;;;;;;;;5019973;28;20228;-60
2022/01/09 09:11:26;;;;;;;21.13;14.52;;;;;;;;;;5019013;28;20291;-60
2022/01/09 09:13:51;;;;;;;20.53;8.63;;;;;;;;;;5023844;28;20553;-60
2022/01/09 09:16:17;;;;;;;29.90;25.73;;;;;;;;;;5016963;28;20213;-60
2022/01/09 09:18:44;;;;;;;13.83;8.17;;;;;;;;;;5021762;28;20215;-60
2022/01/09 09:21:09;;;;;;;13.87;6.07;;;;;;;;;;5020253;28;20204;-60
2022/01/09 09:23:35;;;;;;;25.58;16.42;;;;;;;;;;5023115;28;20254;-60
2022/01/09 09:26:00;;;;;;;31.70;22.47;;;;;;;;;;5023373;28;20220;-61
2022/01/09 09:28:25;;;;;;;23.25;11.85;;;;;;;;;;5023464;28;20256;-60
2022/01/09 09:30:51;;;;;;;20.80;10.43;;;;;;;;;;5034327;28;20300;-60
2022/01/09 09:33:16;;;;;;;23.27;11.83;;;;;;;;;;5033336;28;20303;-60
2022/01/09 09:35:41;;;;;;;12.52;3.70;;;;;;;;;;5035516;28;20207;-60
2022/01/09 09:38:07;;;;;;;16.50;5.33;;;;;;;;;;5033559;28;20587;-61
2022/01/09 09:40:32;;;;;;;14.70;5.43;;;;;;;;;;5035066;28;20302;-60
2022/01/09 09:42:57;;;;;;;14.02;4.22;;;;;;;;;;5032943;28;20200;-59
2022/01/09 09:45:24;;;;;;;11.37;2.77;;;;;;;;;;5051375;28;20231;-59
2022/01/09 09:47:49;;;;;;;13.57;4.67;;;;;;;;;;5054516;28;20892;-59
2022/01/09 09:50:15;;;;;;;7.80;2.63;;;;;;;;;;5053372;28;20335;-60
2022/01/09 09:52:41;;;;;;;13.77;3.47;;;;;;;;;;5054311;28;20299;-61
2022/01/09 09:55:06;;;;;;;12.57;3.40;;;;;;;;;;5054287;28;20203;-61
2022/01/09 09:57:31;;;;;;;13.27;2.43;;;;;;;;;;5053795;28;20233;-60
2022/01/09 09:59:59;;;;;;;16.27;3.03;;;;;;;;;;5054324;28;20708;-61
2022/01/09 10:02:24;;;;;;;15.85;3.35;;;;;;;;;;5054108;28;20753;-60
2022/01/09 10:04:57;;;;;;;13.57;2.90;;;;;;;;;;5053605;28;20307;-60
2022/01/09 10:07:23;;;;;;;14.93;2.50;;;;;;;;;;5035560;28;20685;-60
2022/01/09 10:09:53;;;;;;;10.70;2.63;;;;;;;;;;5054224;28;20207;-60
2022/01/09 10:12:22;;;;;;;9.43;2.47;;;;;;;;;;5053017;28;20215;-60
2022/01/09 10:14:47;;;;;;;13.55;2.88;;;;;;;;;;5054039;28;20206;-60
2022/01/09 10:17:14;;;;;;;11.37;2.80;;;;;;;;;;5035851;28;20213;-60
2022/01/09 10:19:41;;;;;;;12.27;2.90;;;;;;;;;;5034991;28;20226;-60
2022/01/09 10:22:06;;;;;;;11.43;2.77;;;;;;;;;;5013268;28;20206;-60
2022/01/09 10:24:32;;;;;;;13.83;2.30;;;;;;;;;;5034212;28;20211;-60
2022/01/09 10:26:57;;;;;;;9.73;2.88;;;;;;;;;;5032685;28;20228;-60
2022/01/09 10:29:22;;;;;;;9.60;2.63;;;;;;;;;;5033469;28;20208;-61
2022/01/09 10:31:50;;;;;;;10.35;2.15;;;;;;;;;;5015983;28;20545;-60
2022/01/09 10:34:16;;;;;;;14.67;2.93;;;;;;;;;;5015244;28;20208;-61
2022/01/09 10:36:43;;;;;;;8.68;1.95;;;;;;;;;;5016237;28;20212;-60
2022/01/09 10:39:12;;;;;;;10.47;2.33;;;;;;;;;;5032911;28;20247;-60
2022/01/09 10:41:44;;;;;;;13.47;2.07;;;;;;;;;;5016038;28;20208;-60
2022/01/09 10:44:14;;;;;;;10.30;2.10;;;;;;;;;;5033010;28;20223;-60
2022/01/09 10:46:40;;;;;;;9.60;1.70;;;;;;;;;;5032551;28;20254;-60
2022/01/09 10:49:05;;;;;;;11.67;2.13;;;;;;;;;;5033031;28;20203;-61
2022/01/09 10:51:30;;;;;;;13.20;2.07;;;;;;;;;;5033304;28;20204;-60
2022/01/09 10:53:58;;;;;;;11.10;2.70;;;;;;;;;;5032323;28;20241;-60
2022/01/09 10:56:25;;;;;;;12.27;3.43;;;;;;;;;;5015376;28;20215;-60
2022/01/09 10:58:52;;;;;;;38.73;13.33;;;;;;;;;;5015961;28;20235;-60
2022/01/09 11:01:24;;;;;;;25.17;8.47;;;;;;;;;;5031937;28;20219;-60
2022/01/09 11:03:50;;;;;;;30.03;11.63;;;;;;;;;;5015827;28;20294;-60
2022/01/09 11:06:17;;;;;;;12.83;4.43;;;;;;;;;;5015095;28;20234;-60
2022/01/09 11:08:42;;;;;;;13.37;4.20;;;;;;;;;;5031994;28;20744;-60
2022/01/09 11:11:16;;;;;;;12.77;4.40;;;;;;;;;;5032828;28;20207;-60
2022/01/09 11:13:42;;;;;;;10.98;3.40;;;;;;;;;;5033109;28;20615;-60
2022/01/09 11:18:51;;;;;;;12.23;2.57;;;;;;;;;;5027380;28;20281;-60
2022/01/09 11:21:16;;;;;;;11.03;2.37;;;;;;;;;;5032580;28;20590;-60
2022/01/09 11:23:48;;;;;;;14.40;2.55;;;;;;;;;;5050595;28;20234;-60
2022/01/09 11:26:14;;;;;;;9.90;2.60;;;;;;;;;;5034485;28;20226;-60
2022/01/09 11:28:39;;;;;;;14.98;2.70;;;;;;;;;;5033416;28;20268;-60
2022/01/09 11:31:08;;;;;;;11.05;2.25;;;;;;;;;;5034418;28;20241;-60
2022/01/09 11:33:43;;;;;;;12.77;3.00;;;;;;;;;;5052766;28;20272;-60
2022/01/09 11:36:28;;;;;;;12.80;2.45;;;;;;;;;;5033623;28;20218;-61
2022/01/09 11:38:55;;;;;;;14.73;2.83;;;;;;;;;;5034743;28;20209;-60
2022/01/09 11:41:23;;;;;;;8.88;2.40;;;;;;;;;;5052068;28;21174;-60
2022/01/09 11:43:51;;;;;;;9.07;2.30;;;;;;;;;;5036257;28;20273;-60
2022/01/09 11:46:16;;;;;;;10.33;2.97;;;;;;;;;;5050861;28;20227;-60
2022/01/09 11:48:42;;;;;;;13.00;2.85;;;;;;;;;;5051347;28;20203;-60
2022/01/09 11:51:09;;;;;;;10.02;2.50;;;;;;;;;;5051310;28;20207;-60
2022/01/09 11:53:52;;;;;;;12.85;2.70;;;;;;;;;;5052506;28;20226;-61
2022/01/09 11:56:39;;;;;;;14.70;3.10;;;;;;;;;;5052024;28;20302;-60
2022/01/09 11:59:23;;;;;;;14.77;2.47;;;;;;;;;;5051919;28;20701;-60
2022/01/09 12:01:48;;;;;;;14.43;2.75;;;;;;;;;;5035893;28;20624;-60
2022/01/09 12:04:30;;;;;;;10.15;1.80;;;;;;;;;;5031398;28;20220;-60
2022/01/09 12:06:56;;;;;;;12.98;2.08;;;;;;;;;;5033223;28;20228;-60
2022/01/09 12:09:32;;;;;;;12.50;2.30;;;;;;;;;;5014399;28;20208;-60
2022/01/09 12:12:03;;;;;;;10.77;1.88;;;;;;;;;;5031641;28;20219;-60
2022/01/09 12:14:56;;;;;;;13.57;2.10;;;;;;;;;;5032006;28;20215;-62
2022/01/09 12:17:21;;;;;;;12.18;2.72;;;;;;;;;;5043600;28;20274;-62
2022/01/09 12:19:53;;;;;;;13.75;2.30;;;;;;;;;;5038098;28;20376;-62
2022/01/09 12:22:37;;;;;;;11.50;1.98;;;;;;;;;;5038948;28;20290;-62
2022/01/09 12:25:02;;;;;;;11.68;1.70;;;;;;;;;;5046174;28;20748;-62
2022/01/09 12:27:42;;;;;;;9.47;1.90;;;;;;;;;;5031256;28;20314;-61
2022/01/09 12:30:08;;;;;;;10.27;1.95;;;;;;;;;;5031811;28;20212;-62
2022/01/09 12:32:38;;;;;;;13.45;2.08;;;;;;;;;;5031510;28;20219;-61
2022/01/09 12:35:12;;;;;;;10.82;2.45;;;;;;;;;;5031755;28;20326;-62
2022/01/09 12:37:43;;;;;;;12.23;2.85;;;;;;;;;;5030929;28;20438;-61
2022/01/09 12:40:08;;;;;;;9.50;2.50;;;;;;;;;;5030486;28;20215;-60
2022/01/09 12:42:34;;;;;;;12.27;2.30;;;;;;;;;;5036078;28;20207;-61
2022/01/09 12:45:01;;;;;;;12.18;2.42;;;;;;;;;;5029756;28;20589;-60
2022/01/09 12:47:36;;;;;;;9.00;2.40;;;;;;;;;;5030662;28;20224;-59
2022/01/09 12:50:01;;;;;;;13.43;2.40;;;;;;;;;;5013751;28;20211;-60
2022/01/09 12:52:27;;;;;;;10.25;2.40;;;;;;;;;;5014101;28;20295;-60
2022/01/09 12:55:06;;;;;;;13.50;3.05;;;;;;;;;;5011087;28;20208;-59
2022/01/09 12:57:50;;;;;;;14.20;5.30;;;;;;;;;;5015323;28;20211;-59
2022/01/09 13:00:16;;;;;;;13.00;2.42;;;;;;;;;;5014500;28;20309;-59
2022/01/09 13:02:50;;;;;;;14.25;2.40;;;;;;;;;;5015750;28;20756;-59
2022/01/09 13:05:19;;;;;;;11.75;2.22;;;;;;;;;;5015063;28;20223;-60
2022/01/09 13:07:45;;;;;;;11.67;2.30;;;;;;;;;;4997119;28;20224;-59
2022/01/09 13:10:12;;;;;;;13.27;2.35;;;;;;;;;;5014926;28;20267;-60
2022/01/09 13:12:37;;;;;;;8.75;2.40;;;;;;;;;;5015751;28;20213;-60
2022/01/09 13:15:02;;;;;;;11.65;2.38;;;;;;;;;;5013857;28;20212;-60
2022/01/09 13:17:29;;;;;;;11.98;2.38;;;;;;;;;;5015258;28;20212;-59
2022/01/09 13:19:54;;;;;;;11.48;2.58;;;;;;;;;;5015764;28;20227;-60
2022/01/09 13:22:21;;;;;;;13.98;2.95;;;;;;;;;;5021384;28;20212;-60
2022/01/09 13:24:46;;;;;;;12.50;2.60;;;;;;;;;;5000762;28;20679;-60
2022/01/09 13:27:12;;;;;;;10.23;2.15;;;;;;;;;;5034593;28;20243;-59
2022/01/09 13:29:42;;;;;;;11.45;2.25;;;;;;;;;;5016364;28;20225;-59
2022/01/09 13:32:07;;;;;;;11.57;2.50;;;;;;;;;;5017131;28;20204;-60
2022/01/09 13:34:35;;;;;;;11.33;2.30;;;;;;;;;;5015286;28;20219;-60
2022/01/09 13:37:01;;;;;;;14.77;2.25;;;;;;;;;;5013789;28;20307;-61
2022/01/09 13:39:27;;;;;;;11.88;2.15;;;;;;;;;;5014490;28;20216;-61
2022/01/09 13:42:00;;;;;;;8.45;1.73;;;;;;;;;;5015185;28;20208;-61
2022/01/09 13:44:26;;;;;;;12.83;2.40;;;;;;;;;;5015157;28;20231;-61
2022/01/09 13:46:58;;;;;;;8.10;1.90;;;;;;;;;;5035048;28;20254;-61
2022/01/09 13:49:23;;;;;;;8.40;2.20;;;;;;;;;;5036761;28;20215;-60
2022/01/09 13:51:49;;;;;;;7.32;1.80;;;;;;;;;;5049017;28;20261;-60
2022/01/09 13:54:15;;;;;;;7.78;1.70;;;;;;;;;;5053632;28;20588;-60
2022/01/09 13:56:42;;;;;;;4.93;1.40;;;;;;;;;;5040725;28;20538;-60
2022/01/09 13:59:07;;;;;;;6.95;1.30;;;;;;;;;;5033392;28;20212;-61
2022/01/09 14:01:39;;;;;;;6.30;1.20;;;;;;;;;;5033033;28;20216;-60
2022/01/09 14:04:11;;;;;;;5.63;1.20;;;;;;;;;;5033383;28;20223;-61
2022/01/09 14:06:37;;;;;;;14.05;7.00;;;;;;;;;;5034011;28;20220;-60
2022/01/09 14:09:02;;;;;;;6.63;1.55;;;;;;;;;;5033422;28;20265;-61
2022/01/09 14:11:27;;;;;;;5.87;1.53;;;;;;;;;;5031839;28;20211;-60
2022/01/09 14:13:53;;;;;;;11.80;3.70;;;;;;;;;;5033178;28;20682;-60
2022/01/09 14:16:18;;;;;;;7.13;2.15;;;;;;;;;;5040181;28;20284;-60
2022/01/09 14:18:43;;;;;;;8.93;2.60;;;;;;;;;;5044195;28;20580;-60
2022/01/09 14:21:09;;;;;;;12.23;3.72;;;;;;;;;;5033851;28;20208;-60
2022/01/09 14:23:35;;;;;;;10.98;3.33;;;;;;;;;;5051836;28;20211;-60
2022/01/09 14:26:05;;;;;;;13.98;4.75;;;;;;;;;;5052145;28;20754;-60
2022/01/09 14:28:31;;;;;;;12.63;5.20;;;;;;;;;;5054116;28;20218;-60
2022/01/09 14:31:02;;;;;;;14.85;6.20;;;;;;;;;;5053027;28;20211;-60